SFR78G FAOR-FAGG
Flight info
| Callsign | SFR78G |
|---|---|
| Flight time | 1h 28m |
| Altitude | 34000 |
| Route | HGV UZ16 NEVEN UQ9 XALIN |
| Aircraft | B738/M-SDE2E3FGHIRWXY/LB1 |
Departure
| Time | 2026-04-15 11:30 |
|---|---|
| Airport | O.R. Tambo International Airport (FAOR) |
Arrival
| Time | 2026-04-15 12:58 |
|---|---|
| Airport | George Airport (FAGG) |
| Time | Latitude | Longitude | Altitude | Speed | Heading |
|---|---|---|---|---|---|
| 2026-04-15 11:11 | -26.13477 | 28.23275 | 5579 ft | 0 kts | 275° |
| 2026-04-15 11:21 | -26.13477 | 28.23283 | 5579 ft | 2 kts | 275° |
| 2026-04-15 11:21 | -26.13479 | 28.23299 | 5578 ft | 2 kts | 275° |
| 2026-04-15 11:22 | -26.13480 | 28.23316 | 5577 ft | 2 kts | 275° |
| 2026-04-15 11:22 | -26.13481 | 28.23332 | 5577 ft | 2 kts | 275° |
| 2026-04-15 11:22 | -26.13483 | 28.23348 | 5576 ft | 1 kts | 275° |
| 2026-04-15 11:22 | -26.13483 | 28.23358 | 5576 ft | 1 kts | 250° |
| 2026-04-15 11:23 | -26.13475 | 28.23367 | 5576 ft | 0 kts | 194° |
| 2026-04-15 11:23 | -26.13470 | 28.23368 | 5576 ft | 0 kts | 180° |
| 2026-04-15 11:23 | -26.13466 | 28.23368 | 5576 ft | 0 kts | 185° |
| 2026-04-15 11:25 | -26.13469 | 28.23368 | 5576 ft | 1 kts | 186° |
| 2026-04-15 11:25 | -26.13507 | 28.23363 | 5575 ft | 7 kts | 185° |
| 2026-04-15 11:25 | -26.13558 | 28.23357 | 5575 ft | 9 kts | 187° |
| 2026-04-15 11:26 | -26.13649 | 28.23346 | 5575 ft | 14 kts | 186° |
| 2026-04-15 11:26 | -26.13745 | 28.23334 | 5575 ft | 13 kts | 187° |
| 2026-04-15 11:26 | -26.13833 | 28.23319 | 5575 ft | 13 kts | 193° |
| 2026-04-15 11:26 | -26.13944 | 28.23286 | 5573 ft | 19 kts | 196° |
| 2026-04-15 11:27 | -26.14086 | 28.23241 | 5578 ft | 21 kts | 196° |
| 2026-04-15 11:27 | -26.14217 | 28.23201 | 5583 ft | 15 kts | 195° |
| 2026-04-15 11:27 | -26.14306 | 28.23212 | 5583 ft | 14 kts | 166° |
| 2026-04-15 11:27 | -26.14423 | 28.23246 | 5581 ft | 17 kts | 165° |
| 2026-04-15 11:28 | -26.14534 | 28.23276 | 5581 ft | 15 kts | 166° |
| 2026-04-15 11:28 | -26.14596 | 28.23312 | 5582 ft | 7 kts | 115° |
| 2026-04-15 11:28 | -26.14615 | 28.23388 | 5581 ft | 15 kts | 105° |
| 2026-04-15 11:28 | -26.14615 | 28.23443 | 5580 ft | 4 kts | 35° |
| 2026-04-15 11:29 | -26.14506 | 28.23475 | 5574 ft | 43 kts | 15° |
| 2026-04-15 11:29 | -26.13966 | 28.23642 | 5555 ft | 116 kts | 15° |
| 2026-04-15 11:29 | -26.12975 | 28.23953 | 5533 ft | 175 kts | 16° |
| 2026-04-15 11:29 | -26.11724 | 28.24324 | 5968 ft | 191 kts | 10° |
| 2026-04-15 11:30 | -26.10356 | 28.24694 | 6512 ft | 211 kts | 10° |
| 2026-04-15 11:30 | -26.08881 | 28.25109 | 7091 ft | 230 kts | 14° |
| 2026-04-15 11:30 | -26.07254 | 28.25647 | 7589 ft | 253 kts | 15° |
| 2026-04-15 11:30 | -26.05526 | 28.26229 | 8218 ft | 267 kts | 15° |
| 2026-04-15 11:31 | -26.03729 | 28.26838 | 8946 ft | 278 kts | 19° |
| 2026-04-15 11:31 | -26.01957 | 28.27824 | 9641 ft | 291 kts | 37° |
| 2026-04-15 11:31 | -26.00603 | 28.29470 | 10523 ft | 296 kts | 58° |
| 2026-04-15 11:31 | -25.99842 | 28.31586 | 11363 ft | 302 kts | 77° |
| 2026-04-15 11:32 | -25.99616 | 28.33910 | 12216 ft | 306 kts | 89° |
| 2026-04-15 11:32 | -25.99924 | 28.36245 | 12987 ft | 312 kts | 107° |
| 2026-04-15 11:32 | -26.00879 | 28.38421 | 13815 ft | 317 kts | 124° |
| 2026-04-15 11:32 | -26.02338 | 28.40235 | 14564 ft | 322 kts | 139° |
| 2026-04-15 11:33 | -26.04189 | 28.41632 | 15241 ft | 329 kts | 152° |
| 2026-04-15 11:33 | -26.06373 | 28.42571 | 15699 ft | 344 kts | 167° |
| 2026-04-15 11:33 | -26.08822 | 28.42757 | 15914 ft | 364 kts | 187° |
| 2026-04-15 11:33 | -26.11339 | 28.42208 | 16296 ft | 378 kts | 196° |
| 2026-04-15 11:34 | -26.13913 | 28.41379 | 16878 ft | 386 kts | 198° |
| 2026-04-15 11:34 | -26.16494 | 28.40558 | 17489 ft | 392 kts | 196° |
| 2026-04-15 11:34 | -26.19149 | 28.39812 | 18228 ft | 395 kts | 194° |
| 2026-04-15 11:34 | -26.21859 | 28.39135 | 18870 ft | 400 kts | 193° |
| 2026-04-15 11:35 | -26.24581 | 28.38506 | 19543 ft | 403 kts | 193° |
| 2026-04-15 11:35 | -26.27340 | 28.37890 | 20208 ft | 407 kts | 193° |
| 2026-04-15 11:35 | -26.30116 | 28.37275 | 20842 ft | 410 kts | 193° |
| 2026-04-15 11:35 | -26.32923 | 28.36650 | 21435 ft | 415 kts | 193° |
| 2026-04-15 11:36 | -26.35767 | 28.36015 | 22020 ft | 419 kts | 194° |
| 2026-04-15 11:36 | -26.38663 | 28.35364 | 22602 ft | 422 kts | 194° |
| 2026-04-15 11:36 | -26.41561 | 28.34709 | 23121 ft | 428 kts | 194° |
| 2026-04-15 11:36 | -26.44476 | 28.34052 | 23774 ft | 429 kts | 194° |
| 2026-04-15 11:37 | -26.47387 | 28.33361 | 24411 ft | 430 kts | 195° |
| 2026-04-15 11:37 | -26.50333 | 28.32668 | 24862 ft | 437 kts | 194° |
| 2026-04-15 11:37 | -26.53312 | 28.31988 | 25375 ft | 441 kts | 194° |
| 2026-04-15 11:37 | -26.56332 | 28.31312 | 25959 ft | 443 kts | 194° |
| 2026-04-15 11:38 | -26.59363 | 28.30636 | 26504 ft | 446 kts | 194° |
| 2026-04-15 11:38 | -26.62428 | 28.29953 | 27086 ft | 448 kts | 194° |
| 2026-04-15 11:38 | -26.65501 | 28.29262 | 27584 ft | 451 kts | 194° |
| 2026-04-15 11:38 | -26.68609 | 28.28561 | 28062 ft | 454 kts | 194° |
| 2026-04-15 11:39 | -26.71696 | 28.27831 | 28576 ft | 456 kts | 195° |
| 2026-04-15 11:39 | -26.74794 | 28.26992 | 29042 ft | 458 kts | 197° |
| 2026-04-15 11:39 | -26.77868 | 28.26084 | 29393 ft | 463 kts | 198° |
| 2026-04-15 11:39 | -26.81013 | 28.25123 | 29749 ft | 468 kts | 198° |
| 2026-04-15 11:40 | -26.84143 | 28.24171 | 30260 ft | 470 kts | 198° |
| 2026-04-15 11:40 | -26.87309 | 28.23222 | 30700 ft | 473 kts | 198° |
| 2026-04-15 11:40 | -26.90525 | 28.22253 | 31064 ft | 477 kts | 198° |
| 2026-04-15 11:40 | -26.93712 | 28.21291 | 31564 ft | 479 kts | 198° |
| 2026-04-15 11:41 | -26.96962 | 28.20312 | 31859 ft | 485 kts | 198° |
| 2026-04-15 11:41 | -27.00223 | 28.19341 | 32353 ft | 484 kts | 198° |
| 2026-04-15 11:41 | -27.03477 | 28.18367 | 32976 ft | 481 kts | 198° |
| 2026-04-15 11:41 | -27.06659 | 28.17413 | 33737 ft | 474 kts | 198° |
| 2026-04-15 11:42 | -27.09858 | 28.16453 | 34210 ft | 472 kts | 199° |
| 2026-04-15 11:42 | -27.13036 | 28.15495 | 34264 ft | 471 kts | 199° |
| 2026-04-15 11:42 | -27.19316 | 28.13615 | 34277 ft | 462 kts | 199° |
| 2026-04-15 11:43 | -27.25544 | 28.11759 | 34279 ft | 464 kts | 199° |
| 2026-04-15 11:43 | -27.31833 | 28.09888 | 34272 ft | 467 kts | 199° |
| 2026-04-15 11:44 | -27.38095 | 28.08008 | 34287 ft | 466 kts | 199° |
| 2026-04-15 11:44 | -27.44390 | 28.06074 | 34274 ft | 463 kts | 201° |
| 2026-04-15 11:45 | -27.50269 | 28.03365 | 34280 ft | 455 kts | 213° |
| 2026-04-15 11:45 | -27.55580 | 27.99487 | 34280 ft | 454 kts | 220° |
| 2026-04-15 11:46 | -27.60676 | 27.95290 | 34276 ft | 451 kts | 221° |
| 2026-04-15 11:46 | -27.65727 | 27.91086 | 34293 ft | 453 kts | 221° |
| 2026-04-15 11:47 | -27.70814 | 27.86921 | 34292 ft | 454 kts | 221° |
| 2026-04-15 11:47 | -27.75962 | 27.82751 | 34280 ft | 452 kts | 220° |
| 2026-04-15 11:48 | -27.81066 | 27.78627 | 34262 ft | 455 kts | 220° |
| 2026-04-15 11:48 | -27.86225 | 27.74467 | 34269 ft | 455 kts | 220° |
| 2026-04-15 11:49 | -27.91402 | 27.70276 | 34293 ft | 457 kts | 220° |
| 2026-04-15 11:49 | -27.96524 | 27.66119 | 34267 ft | 455 kts | 220° |
| 2026-04-15 11:50 | -28.01727 | 27.61913 | 34263 ft | 457 kts | 220° |
| 2026-04-15 11:50 | -28.06918 | 27.57846 | 34275 ft | 457 kts | 219° |
| 2026-04-15 11:51 | -28.12206 | 27.53752 | 34250 ft | 458 kts | 219° |
| 2026-04-15 11:51 | -28.17471 | 27.49700 | 34286 ft | 458 kts | 220° |
| 2026-04-15 11:52 | -28.22705 | 27.45610 | 34254 ft | 459 kts | 219° |
| 2026-04-15 11:52 | -28.28001 | 27.41485 | 34262 ft | 463 kts | 219° |
| 2026-04-15 11:53 | -28.33308 | 27.37359 | 34281 ft | 460 kts | 219° |
| 2026-04-15 11:53 | -28.38565 | 27.33263 | 34265 ft | 460 kts | 220° |
| 2026-04-15 11:54 | -28.43843 | 27.29140 | 34252 ft | 459 kts | 220° |
| 2026-04-15 11:54 | -28.49071 | 27.25040 | 34257 ft | 459 kts | 220° |
| 2026-04-15 11:55 | -28.54379 | 27.20869 | 34252 ft | 463 kts | 220° |
| 2026-04-15 11:55 | -28.59685 | 27.16700 | 34256 ft | 462 kts | 220° |
| 2026-04-15 11:56 | -28.64951 | 27.12569 | 34253 ft | 461 kts | 220° |
| 2026-04-15 11:56 | -28.70235 | 27.08409 | 34261 ft | 462 kts | 220° |
| 2026-04-15 11:57 | -28.78187 | 27.02135 | 34244 ft | 463 kts | 220° |
| 2026-04-15 11:58 | -28.83454 | 26.97977 | 34229 ft | 463 kts | 220° |
| 2026-04-15 11:58 | -28.88757 | 26.93783 | 34259 ft | 464 kts | 220° |
| 2026-04-15 11:59 | -28.94066 | 26.89577 | 34252 ft | 468 kts | 220° |
| 2026-04-15 11:59 | -28.99408 | 26.85342 | 34237 ft | 466 kts | 220° |
| 2026-04-15 12:00 | -29.04729 | 26.81129 | 34241 ft | 462 kts | 220° |
| 2026-04-15 12:00 | -29.10035 | 26.76911 | 34238 ft | 467 kts | 220° |
| 2026-04-15 12:01 | -29.15361 | 26.72668 | 34245 ft | 468 kts | 220° |
| 2026-04-15 12:01 | -29.20710 | 26.68410 | 34227 ft | 466 kts | 220° |
| 2026-04-15 12:02 | -29.26050 | 26.64145 | 34246 ft | 469 kts | 220° |
| 2026-04-15 12:02 | -29.31358 | 26.59901 | 34229 ft | 467 kts | 220° |
| 2026-04-15 12:03 | -29.36715 | 26.55610 | 34246 ft | 470 kts | 220° |
| 2026-04-15 12:03 | -29.42069 | 26.51325 | 34236 ft | 470 kts | 220° |
| 2026-04-15 12:04 | -29.47447 | 26.47025 | 34228 ft | 469 kts | 220° |
| 2026-04-15 12:04 | -29.52796 | 26.42729 | 34248 ft | 471 kts | 220° |
| 2026-04-15 12:05 | -29.58160 | 26.38403 | 34228 ft | 470 kts | 220° |
| 2026-04-15 12:05 | -29.63473 | 26.34124 | 34252 ft | 467 kts | 221° |
| 2026-04-15 12:06 | -29.68813 | 26.29826 | 34220 ft | 473 kts | 221° |
| 2026-04-15 12:06 | -29.74205 | 26.25474 | 34248 ft | 470 kts | 221° |
| 2026-04-15 12:07 | -29.79577 | 26.21124 | 34229 ft | 468 kts | 221° |
| 2026-04-15 12:07 | -29.84882 | 26.16824 | 34218 ft | 471 kts | 221° |
| 2026-04-15 12:08 | -29.90262 | 26.12460 | 34228 ft | 471 kts | 221° |
| 2026-04-15 12:08 | -29.95599 | 26.08127 | 34227 ft | 470 kts | 220° |
| 2026-04-15 12:09 | -30.00969 | 26.03761 | 34213 ft | 471 kts | 221° |
| 2026-04-15 12:09 | -30.06309 | 25.99419 | 34218 ft | 469 kts | 221° |
| 2026-04-15 12:10 | -30.11636 | 25.95075 | 34221 ft | 469 kts | 221° |
| 2026-04-15 12:10 | -30.16963 | 25.90736 | 34211 ft | 469 kts | 221° |
| 2026-04-15 12:11 | -30.22302 | 25.86384 | 34199 ft | 470 kts | 221° |
| 2026-04-15 12:11 | -30.27604 | 25.82047 | 34220 ft | 466 kts | 221° |
| 2026-04-15 12:12 | -30.32899 | 25.77698 | 34219 ft | 469 kts | 222° |
| 2026-04-15 12:12 | -30.38284 | 25.73318 | 34212 ft | 472 kts | 221° |
| 2026-04-15 12:13 | -30.43584 | 25.68912 | 34182 ft | 470 kts | 221° |
| 2026-04-15 12:13 | -30.48971 | 25.64624 | 34214 ft | 467 kts | 220° |
| 2026-04-15 12:14 | -30.54256 | 25.60304 | 34190 ft | 462 kts | 221° |
| 2026-04-15 12:14 | -30.59463 | 25.55941 | 34178 ft | 467 kts | 221° |
| 2026-04-15 12:15 | -30.64745 | 25.51516 | 34188 ft | 462 kts | 221° |
| 2026-04-15 12:15 | -30.69964 | 25.47172 | 34185 ft | 463 kts | 221° |
| 2026-04-15 12:16 | -30.75220 | 25.42801 | 34186 ft | 465 kts | 221° |
| 2026-04-15 12:16 | -30.80471 | 25.38446 | 34192 ft | 463 kts | 221° |
| 2026-04-15 12:17 | -30.85703 | 25.34103 | 34194 ft | 460 kts | 222° |
| 2026-04-15 12:17 | -30.90921 | 25.29764 | 34218 ft | 462 kts | 222° |
| 2026-04-15 12:18 | -30.96169 | 25.25389 | 34187 ft | 462 kts | 222° |
| 2026-04-15 12:18 | -31.01366 | 25.21061 | 34202 ft | 459 kts | 223° |
| 2026-04-15 12:19 | -31.06580 | 25.16705 | 34182 ft | 463 kts | 222° |
| 2026-04-15 12:19 | -31.11775 | 25.12360 | 34196 ft | 458 kts | 222° |
| 2026-04-15 12:20 | -31.16946 | 25.08024 | 34184 ft | 457 kts | 222° |
| 2026-04-15 12:20 | -31.22095 | 25.03715 | 34217 ft | 456 kts | 222° |
| 2026-04-15 12:21 | -31.27289 | 24.99355 | 34199 ft | 457 kts | 222° |
| 2026-04-15 12:21 | -31.32410 | 24.95041 | 34186 ft | 458 kts | 222° |
| 2026-04-15 12:22 | -31.37587 | 24.90676 | 34202 ft | 454 kts | 222° |
| 2026-04-15 12:22 | -31.42715 | 24.86361 | 34198 ft | 454 kts | 222° |
| 2026-04-15 12:23 | -31.47847 | 24.82029 | 34186 ft | 457 kts | 222° |
| 2026-04-15 12:23 | -31.52953 | 24.77710 | 34192 ft | 454 kts | 222° |
| 2026-04-15 12:24 | -31.58100 | 24.73351 | 34209 ft | 455 kts | 222° |
| 2026-04-15 12:24 | -31.63210 | 24.69019 | 34205 ft | 453 kts | 222° |
| 2026-04-15 12:25 | -31.68342 | 24.64665 | 34193 ft | 451 kts | 222° |
| 2026-04-15 12:25 | -31.73411 | 24.60357 | 34217 ft | 452 kts | 222° |
| 2026-04-15 12:26 | -31.78507 | 24.56013 | 34211 ft | 454 kts | 222° |
| 2026-04-15 12:26 | -31.83608 | 24.51670 | 34202 ft | 450 kts | 222° |
| 2026-04-15 12:27 | -31.88670 | 24.47346 | 34182 ft | 452 kts | 222° |
| 2026-04-15 12:27 | -31.93743 | 24.43005 | 34181 ft | 449 kts | 223° |
| 2026-04-15 12:28 | -31.98821 | 24.38661 | 34181 ft | 450 kts | 223° |
| 2026-04-15 12:28 | -32.03877 | 24.34324 | 34169 ft | 450 kts | 223° |
| 2026-04-15 12:29 | -32.08888 | 24.30023 | 34161 ft | 446 kts | 223° |
| 2026-04-15 12:29 | -32.13918 | 24.25701 | 34144 ft | 447 kts | 223° |
| 2026-04-15 12:30 | -32.18920 | 24.21392 | 34165 ft | 448 kts | 223° |
| 2026-04-15 12:30 | -32.23962 | 24.17045 | 34127 ft | 447 kts | 223° |
| 2026-04-15 12:31 | -32.29006 | 24.12693 | 34140 ft | 447 kts | 223° |
| 2026-04-15 12:31 | -32.34008 | 24.08371 | 34126 ft | 446 kts | 224° |
| 2026-04-15 12:32 | -32.39044 | 24.04012 | 34139 ft | 446 kts | 224° |
| 2026-04-15 12:32 | -32.44049 | 23.99671 | 34121 ft | 447 kts | 224° |
| 2026-04-15 12:33 | -32.49089 | 23.95291 | 34108 ft | 446 kts | 224° |
| 2026-04-15 12:33 | -32.54071 | 23.90962 | 34082 ft | 445 kts | 224° |
| 2026-04-15 12:34 | -32.59034 | 23.86637 | 34016 ft | 444 kts | 224° |
| 2026-04-15 12:34 | -32.61528 | 23.84463 | 34118 ft | 441 kts | 224° |
| 2026-04-15 12:34 | -32.63996 | 23.82315 | 34113 ft | 431 kts | 224° |
| 2026-04-15 12:34 | -32.66362 | 23.80263 | 33964 ft | 420 kts | 224° |
| 2026-04-15 12:35 | -32.68684 | 23.78248 | 33776 ft | 409 kts | 225° |
| 2026-04-15 12:35 | -32.70980 | 23.76248 | 33463 ft | 402 kts | 225° |
| 2026-04-15 12:35 | -32.73200 | 23.74305 | 33007 ft | 401 kts | 225° |
| 2026-04-15 12:35 | -32.75453 | 23.72319 | 32330 ft | 403 kts | 225° |
| 2026-04-15 12:36 | -32.77694 | 23.70343 | 31929 ft | 398 kts | 225° |
| 2026-04-15 12:36 | -32.79896 | 23.68408 | 31544 ft | 393 kts | 225° |
| 2026-04-15 12:36 | -32.82093 | 23.66481 | 31078 ft | 391 kts | 225° |
| 2026-04-15 12:36 | -32.84264 | 23.64571 | 30593 ft | 389 kts | 225° |
| 2026-04-15 12:37 | -32.86413 | 23.62683 | 30236 ft | 383 kts | 225° |
| 2026-04-15 12:37 | -32.88545 | 23.60811 | 29752 ft | 382 kts | 225° |
| 2026-04-15 12:37 | -32.90690 | 23.58922 | 29224 ft | 382 kts | 225° |
| 2026-04-15 12:37 | -32.92799 | 23.57060 | 28847 ft | 378 kts | 225° |
| 2026-04-15 12:38 | -32.94913 | 23.55194 | 28259 ft | 379 kts | 225° |
| 2026-04-15 12:38 | -32.97006 | 23.53350 | 27885 ft | 375 kts | 225° |
| 2026-04-15 12:38 | -32.99103 | 23.51506 | 27428 ft | 373 kts | 225° |
| 2026-04-15 12:38 | -33.01179 | 23.49682 | 26978 ft | 371 kts | 225° |
| 2026-04-15 12:39 | -33.03253 | 23.47853 | 26517 ft | 369 kts | 225° |
| 2026-04-15 12:39 | -33.05304 | 23.46049 | 25832 ft | 369 kts | 224° |
| 2026-04-15 12:39 | -33.07344 | 23.44249 | 25193 ft | 362 kts | 224° |
| 2026-04-15 12:39 | -33.09345 | 23.42492 | 24723 ft | 353 kts | 225° |
| 2026-04-15 12:40 | -33.11299 | 23.40774 | 24086 ft | 348 kts | 225° |
| 2026-04-15 12:40 | -33.13220 | 23.39078 | 23395 ft | 344 kts | 225° |
| 2026-04-15 12:40 | -33.15149 | 23.37367 | 22704 ft | 341 kts | 224° |
| 2026-04-15 12:40 | -33.17012 | 23.35716 | 22160 ft | 335 kts | 224° |
| 2026-04-15 12:41 | -33.18885 | 23.34057 | 21508 ft | 333 kts | 225° |
| 2026-04-15 12:41 | -33.20727 | 23.32422 | 20886 ft | 330 kts | 224° |
| 2026-04-15 12:41 | -33.22558 | 23.30797 | 20607 ft | 321 kts | 224° |
| 2026-04-15 12:41 | -33.24329 | 23.29231 | 20238 ft | 319 kts | 224° |
| 2026-04-15 12:42 | -33.26099 | 23.27654 | 19750 ft | 320 kts | 224° |
| 2026-04-15 12:42 | -33.27897 | 23.26052 | 19289 ft | 320 kts | 224° |
| 2026-04-15 12:42 | -33.29676 | 23.24469 | 18895 ft | 319 kts | 224° |
| 2026-04-15 12:42 | -33.31439 | 23.22900 | 18525 ft | 317 kts | 223° |
| 2026-04-15 12:43 | -33.33208 | 23.21326 | 18101 ft | 315 kts | 223° |
| 2026-04-15 12:43 | -33.34964 | 23.19765 | 17697 ft | 313 kts | 223° |
| 2026-04-15 12:43 | -33.36710 | 23.18212 | 17359 ft | 310 kts | 223° |
| 2026-04-15 12:43 | -33.38428 | 23.16684 | 16940 ft | 308 kts | 223° |
| 2026-04-15 12:44 | -33.40148 | 23.15151 | 16536 ft | 308 kts | 222° |
| 2026-04-15 12:44 | -33.41852 | 23.13631 | 16204 ft | 307 kts | 223° |
| 2026-04-15 12:44 | -33.43562 | 23.12107 | 15851 ft | 304 kts | 223° |
| 2026-04-15 12:44 | -33.45247 | 23.10603 | 15502 ft | 303 kts | 222° |
| 2026-04-15 12:45 | -33.46941 | 23.09091 | 15147 ft | 302 kts | 222° |
| 2026-04-15 12:45 | -33.48612 | 23.07598 | 14742 ft | 302 kts | 222° |
| 2026-04-15 12:45 | -33.50297 | 23.06092 | 14092 ft | 304 kts | 222° |
| 2026-04-15 12:45 | -33.51992 | 23.04575 | 13441 ft | 305 kts | 221° |
| 2026-04-15 12:46 | -33.53668 | 23.03080 | 13227 ft | 298 kts | 221° |
| 2026-04-15 12:46 | -33.55307 | 23.01616 | 12931 ft | 295 kts | 221° |
| 2026-04-15 12:46 | -33.56950 | 23.00148 | 12582 ft | 295 kts | 221° |
| 2026-04-15 12:46 | -33.58603 | 22.98665 | 12187 ft | 295 kts | 222° |
| 2026-04-15 12:47 | -33.60244 | 22.97194 | 11833 ft | 294 kts | 222° |
| 2026-04-15 12:47 | -33.61872 | 22.95734 | 11413 ft | 294 kts | 221° |
| 2026-04-15 12:47 | -33.63518 | 22.94258 | 11046 ft | 292 kts | 221° |
| 2026-04-15 12:47 | -33.65113 | 22.92831 | 10934 ft | 284 kts | 222° |
| 2026-04-15 12:48 | -33.66674 | 22.91433 | 10615 ft | 281 kts | 221° |
| 2026-04-15 12:48 | -33.68245 | 22.90021 | 10274 ft | 279 kts | 222° |
| 2026-04-15 12:48 | -33.69779 | 22.88640 | 9959 ft | 277 kts | 221° |
| 2026-04-15 12:48 | -33.71324 | 22.87252 | 9694 ft | 274 kts | 222° |
| 2026-04-15 12:49 | -33.72832 | 22.85878 | 9337 ft | 275 kts | 222° |
| 2026-04-15 12:49 | -33.74338 | 22.84467 | 8974 ft | 274 kts | 222° |
| 2026-04-15 12:49 | -33.75830 | 22.83052 | 8648 ft | 274 kts | 222° |
| 2026-04-15 12:49 | -33.77327 | 22.81633 | 8258 ft | 274 kts | 222° |
| 2026-04-15 12:50 | -33.78847 | 22.80196 | 7810 ft | 278 kts | 221° |
| 2026-04-15 12:50 | -33.80370 | 22.78762 | 7439 ft | 278 kts | 221° |
| 2026-04-15 12:50 | -33.81882 | 22.77339 | 7078 ft | 277 kts | 221° |
| 2026-04-15 12:50 | -33.83397 | 22.75913 | 6765 ft | 276 kts | 221° |
| 2026-04-15 12:51 | -33.84916 | 22.74482 | 6383 ft | 277 kts | 221° |
| 2026-04-15 12:51 | -33.86419 | 22.73064 | 6037 ft | 275 kts | 221° |
| 2026-04-15 12:51 | -33.87923 | 22.71645 | 5663 ft | 274 kts | 220° |
| 2026-04-15 12:51 | -33.89410 | 22.70242 | 5328 ft | 269 kts | 220° |
| 2026-04-15 12:52 | -33.90861 | 22.68873 | 5037 ft | 257 kts | 220° |
| 2026-04-15 12:52 | -33.92228 | 22.67582 | 4724 ft | 248 kts | 220° |
| 2026-04-15 12:52 | -33.93566 | 22.66316 | 4438 ft | 242 kts | 220° |
| 2026-04-15 12:52 | -33.94892 | 22.65059 | 4157 ft | 241 kts | 219° |
| 2026-04-15 12:53 | -33.96189 | 22.63831 | 4017 ft | 233 kts | 219° |
| 2026-04-15 12:53 | -33.97444 | 22.62644 | 3857 ft | 228 kts | 219° |
| 2026-04-15 12:53 | -33.98678 | 22.61473 | 3660 ft | 224 kts | 220° |
| 2026-04-15 12:53 | -33.99732 | 22.60141 | 3444 ft | 219 kts | 241° |
| 2026-04-15 12:54 | -34.00106 | 22.58407 | 3233 ft | 211 kts | 270° |
| 2026-04-15 12:54 | -33.99992 | 22.56688 | 3000 ft | 205 kts | 272° |
| 2026-04-15 12:54 | -33.99984 | 22.55028 | 2994 ft | 190 kts | 266° |
| 2026-04-15 12:54 | -34.00042 | 22.53436 | 2991 ft | 190 kts | 266° |
| 2026-04-15 12:55 | -34.00087 | 22.51872 | 2771 ft | 184 kts | 267° |
| 2026-04-15 12:55 | -34.00134 | 22.50402 | 2525 ft | 169 kts | 266° |
| 2026-04-15 12:55 | -34.00183 | 22.49030 | 2310 ft | 161 kts | 267° |
| 2026-04-15 12:55 | -34.00230 | 22.47681 | 2100 ft | 159 kts | 267° |
| 2026-04-15 12:56 | -34.00269 | 22.46357 | 1900 ft | 158 kts | 268° |
| 2026-04-15 12:56 | -34.00312 | 22.45051 | 1731 ft | 154 kts | 268° |
| 2026-04-15 12:56 | -34.00359 | 22.43792 | 1470 ft | 146 kts | 268° |
| 2026-04-15 12:56 | -34.00396 | 22.42604 | 1276 ft | 142 kts | 267° |
| 2026-04-15 12:57 | -34.00436 | 22.41415 | 1091 ft | 142 kts | 268° |
| 2026-04-15 12:57 | -34.00478 | 22.40227 | 910 ft | 141 kts | 270° |
| 2026-04-15 12:57 | -34.00513 | 22.39051 | 719 ft | 140 kts | 268° |
| 2026-04-15 12:57 | -34.00552 | 22.37933 | 638 ft | 118 kts | 268° |
| 2026-04-15 12:58 | -34.00573 | 22.37218 | 625 ft | 56 kts | 266° |
| 2026-04-15 12:58 | -34.00584 | 22.36890 | 621 ft | 29 kts | 267° |
| 2026-04-15 12:58 | -34.00563 | 22.36782 | 620 ft | 6 kts | 348° |
| 2026-04-15 12:58 | -34.00504 | 22.36793 | 620 ft | 14 kts | 32° |
| 2026-04-15 12:59 | -34.00381 | 22.36957 | 621 ft | 12 kts | 70° |
| 2026-04-15 12:59 | -34.00367 | 22.37058 | 620 ft | 13 kts | 86° |
| 2026-04-15 12:59 | -34.00364 | 22.37181 | 621 ft | 16 kts | 85° |
| 2026-04-15 13:00 | -34.00359 | 22.37318 | 623 ft | 15 kts | 86° |
| 2026-04-15 13:00 | -34.00355 | 22.37440 | 626 ft | 13 kts | 88° |
| 2026-04-15 13:00 | -34.00353 | 22.37544 | 627 ft | 11 kts | 86° |
| 2026-04-15 13:00 | -34.00349 | 22.37632 | 629 ft | 11 kts | 88° |
| 2026-04-15 13:01 | -34.00346 | 22.37738 | 632 ft | 13 kts | 88° |
| 2026-04-15 13:01 | -34.00342 | 22.37860 | 636 ft | 15 kts | 87° |
| 2026-04-15 13:01 | -34.00337 | 22.38006 | 639 ft | 17 kts | 87° |
| 2026-04-15 13:01 | -34.00320 | 22.38090 | 641 ft | 8 kts | 26° |
| 2026-04-15 13:02 | -34.00277 | 22.38120 | 640 ft | 8 kts | 38° |
| 2026-04-15 13:02 | -34.00240 | 22.38156 | 640 ft | 1 kts | 38° |
| 2026-04-15 13:02 | -34.00238 | 22.38157 | 640 ft | 0 kts | 39° |